sensor_id;sensor_type;location;lat;lon;timestamp;P1;durP1;ratioP1;P2;durP2;ratioP2
5742;SDS011;2896;53.500;10.020;2023-04-24T00:00:46;10.53;;;9.50;;
5742;SDS011;2896;53.500;10.020;2023-04-24T00:03:13;11.50;;;9.50;;
5742;SDS011;2896;53.500;10.020;2023-04-24T00:05:41;9.20;;;8.40;;
5742;SDS011;2896;53.500;10.020;2023-04-24T00:08:07;10.70;;;9.70;;
5742;SDS011;2896;53.500;10.020;2023-04-24T00:10:34;9.23;;;8.33;;
5742;SDS011;2896;53.500;10.020;2023-04-24T00:13:01;9.00;;;7.93;;
5742;SDS011;2896;53.500;10.020;2023-04-24T00:15:27;7.57;;;6.97;;
5742;SDS011;2896;53.500;10.020;2023-04-24T00:17:54;8.60;;;7.80;;
5742;SDS011;2896;53.500;10.020;2023-04-24T00:20:21;9.10;;;7.50;;
5742;SDS011;2896;53.500;10.020;2023-04-24T00:22:49;10.90;;;8.30;;
5742;SDS011;2896;53.500;10.020;2023-04-24T00:25:15;8.07;;;7.37;;
5742;SDS011;2896;53.500;10.020;2023-04-24T00:27:42;8.27;;;7.47;;
5742;SDS011;2896;53.500;10.020;2023-04-24T00:30:09;7.00;;;6.40;;
5742;SDS011;2896;53.500;10.020;2023-04-24T00:32:36;7.80;;;7.20;;
5742;SDS011;2896;53.500;10.020;2023-04-24T00:35:03;8.40;;;7.70;;
5742;SDS011;2896;53.500;10.020;2023-04-24T00:37:30;7.83;;;7.17;;
5742;SDS011;2896;53.500;10.020;2023-04-24T00:39:58;7.37;;;6.63;;
5742;SDS011;2896;53.500;10.020;2023-04-24T00:42:25;6.97;;;6.47;;
5742;SDS011;2896;53.500;10.020;2023-04-24T00:44:52;7.10;;;6.60;;
5742;SDS011;2896;53.500;10.020;2023-04-24T00:47:19;9.67;;;7.97;;
5742;SDS011;2896;53.500;10.020;2023-04-24T00:49:46;8.93;;;8.03;;
5742;SDS011;2896;53.500;10.020;2023-04-24T00:52:13;9.00;;;7.93;;
5742;SDS011;2896;53.500;10.020;2023-04-24T00:54:42;8.93;;;8.03;;
5742;SDS011;2896;53.500;10.020;2023-04-24T00:57:10;7.97;;;7.27;;
5742;SDS011;2896;53.500;10.020;2023-04-24T00:59:38;8.73;;;7.83;;
5742;SDS011;2896;53.500;10.020;2023-04-24T01:02:06;13.23;;;7.97;;
5742;SDS011;2896;53.500;10.020;2023-04-24T01:04:33;11.30;;;8.50;;
5742;SDS011;2896;53.500;10.020;2023-04-24T01:07:01;9.73;;;8.40;;
5742;SDS011;2896;53.500;10.020;2023-04-24T01:09:28;9.60;;;8.70;;
5742;SDS011;2896;53.500;10.020;2023-04-24T01:11:55;10.87;;;7.70;;
5742;SDS011;2896;53.500;10.020;2023-04-24T01:14:23;8.73;;;8.00;;
5742;SDS011;2896;53.500;10.020;2023-04-24T01:16:50;8.53;;;7.83;;
5742;SDS011;2896;53.500;10.020;2023-04-24T01:19:16;7.67;;;7.03;;
5742;SDS011;2896;53.500;10.020;2023-04-24T01:21:45;12.23;;;7.10;;
5742;SDS011;2896;53.500;10.020;2023-04-24T01:24:17;9.37;;;8.43;;
5742;SDS011;2896;53.500;10.020;2023-04-24T01:26:45;7.27;;;6.70;;
5742;SDS011;2896;53.500;10.020;2023-04-24T01:29:11;8.77;;;7.80;;
5742;SDS011;2896;53.500;10.020;2023-04-24T01:31:38;8.07;;;7.23;;
5742;SDS011;2896;53.500;10.020;2023-04-24T01:34:05;8.20;;;7.47;;
5742;SDS011;2896;53.500;10.020;2023-04-24T01:36:33;11.60;;;7.33;;
5742;SDS011;2896;53.500;10.020;2023-04-24T01:39:01;6.90;;;6.40;;
5742;SDS011;2896;53.500;10.020;2023-04-24T01:41:29;7.97;;;7.27;;
5742;SDS011;2896;53.500;10.020;2023-04-24T01:43:56;8.03;;;7.33;;
5742;SDS011;2896;53.500;10.020;2023-04-24T01:46:24;6.87;;;6.10;;
5742;SDS011;2896;53.500;10.020;2023-04-24T01:48:51;6.83;;;6.07;;
5742;SDS011;2896;53.500;10.020;2023-04-24T01:51:18;7.93;;;6.57;;
5742;SDS011;2896;53.500;10.020;2023-04-24T01:53:44;6.87;;;6.30;;
5742;SDS011;2896;53.500;10.020;2023-04-24T01:56:11;6.47;;;5.87;;
5742;SDS011;2896;53.500;10.020;2023-04-24T01:58:39;6.13;;;5.70;;
5742;SDS011;2896;53.500;10.020;2023-04-24T02:01:06;5.67;;;5.27;;
5742;SDS011;2896;53.500;10.020;2023-04-24T02:03:33;7.20;;;5.60;;
5742;SDS011;2896;53.500;10.020;2023-04-24T02:06:00;9.97;;;5.20;;
5742;SDS011;2896;53.500;10.020;2023-04-24T02:08:27;5.20;;;4.90;;
5742;SDS011;2896;53.500;10.020;2023-04-24T02:10:53;4.97;;;4.67;;
5742;SDS011;2896;53.500;10.020;2023-04-24T02:13:20;4.93;;;4.53;;
5742;SDS011;2896;53.500;10.020;2023-04-24T02:15:48;5.13;;;4.83;;
5742;SDS011;2896;53.500;10.020;2023-04-24T02:18:14;5.40;;;4.97;;
5742;SDS011;2896;53.500;10.020;2023-04-24T02:20:41;5.27;;;4.53;;
5742;SDS011;2896;53.500;10.020;2023-04-24T02:23:08;5.33;;;4.93;;
5742;SDS011;2896;53.500;10.020;2023-04-24T02:25:35;5.07;;;4.80;;
5742;SDS011;2896;53.500;10.020;2023-04-24T02:28:01;4.43;;;4.13;;
5742;SDS011;2896;53.500;10.020;2023-04-24T02:30:28;4.80;;;4.37;;
5742;SDS011;2896;53.500;10.020;2023-04-24T02:32:56;4.97;;;4.50;;
5742;SDS011;2896;53.500;10.020;2023-04-24T02:35:23;4.67;;;4.33;;
5742;SDS011;2896;53.500;10.020;2023-04-24T02:37:50;4.00;;;3.70;;
5742;SDS011;2896;53.500;10.020;2023-04-24T02:40:16;4.77;;;4.43;;
5742;SDS011;2896;53.500;10.020;2023-04-24T02:42:43;4.43;;;4.00;;
5742;SDS011;2896;53.500;10.020;2023-04-24T02:45:10;3.93;;;3.73;;
5742;SDS011;2896;53.500;10.020;2023-04-24T02:47:37;4.07;;;3.87;;
5742;SDS011;2896;53.500;10.020;2023-04-24T02:50:05;4.00;;;3.80;;
5742;SDS011;2896;53.500;10.020;2023-04-24T02:52:33;3.60;;;3.40;;
5742;SDS011;2896;53.500;10.020;2023-04-24T02:54:59;3.53;;;3.40;;
5742;SDS011;2896;53.500;10.020;2023-04-24T02:57:26;3.30;;;3.13;;
5742;SDS011;2896;53.500;10.020;2023-04-24T02:59:53;6.73;;;3.40;;
5742;SDS011;2896;53.500;10.020;2023-04-24T03:02:19;2.73;;;2.63;;
5742;SDS011;2896;53.500;10.020;2023-04-24T03:04:46;2.97;;;2.87;;
5742;SDS011;2896;53.500;10.020;2023-04-24T03:07:14;3.10;;;3.00;;
5742;SDS011;2896;53.500;10.020;2023-04-24T03:09:41;2.70;;;2.60;;
5742;SDS011;2896;53.500;10.020;2023-04-24T03:12:08;3.33;;;3.23;;
5742;SDS011;2896;53.500;10.020;2023-04-24T03:14:35;3.00;;;2.90;;
5742;SDS011;2896;53.500;10.020;2023-04-24T03:17:01;6.63;;;2.77;;
5742;SDS011;2896;53.500;10.020;2023-04-24T03:19:28;6.33;;;2.37;;
5742;SDS011;2896;53.500;10.020;2023-04-24T03:21:54;3.80;;;2.67;;
5742;SDS011;2896;53.500;10.020;2023-04-24T03:24:22;2.80;;;2.70;;
5742;SDS011;2896;53.500;10.020;2023-04-24T03:26:49;4.50;;;2.23;;
5742;SDS011;2896;53.500;10.020;2023-04-24T03:29:16;9.17;;;2.53;;
5742;SDS011;2896;53.500;10.020;2023-04-24T03:31:43;3.03;;;2.73;;
5742;SDS011;2896;53.500;10.020;2023-04-24T03:34:09;2.53;;;2.43;;
5742;SDS011;2896;53.500;10.020;2023-04-24T03:36:36;2.50;;;2.40;;
5742;SDS011;2896;53.500;10.020;2023-04-24T03:39:03;2.10;;;2.00;;
5742;SDS011;2896;53.500;10.020;2023-04-24T03:41:31;2.60;;;2.50;;
5742;SDS011;2896;53.500;10.020;2023-04-24T03:43:57;2.80;;;2.60;;
5742;SDS011;2896;53.500;10.020;2023-04-24T03:46:25;2.47;;;2.47;;
5742;SDS011;2896;53.500;10.020;2023-04-24T03:48:51;2.50;;;2.37;;
5742;SDS011;2896;53.500;10.020;2023-04-24T03:51:18;2.67;;;2.57;;
5742;SDS011;2896;53.500;10.020;2023-04-24T03:53:44;3.07;;;2.87;;
5742;SDS011;2896;53.500;10.020;2023-04-24T03:56:11;2.47;;;2.30;;
5742;SDS011;2896;53.500;10.020;2023-04-24T03:58:39;2.60;;;2.40;;
5742;SDS011;2896;53.500;10.020;2023-04-24T04:01:06;2.93;;;2.83;;
5742;SDS011;2896;53.500;10.020;2023-04-24T04:03:32;3.07;;;2.50;;
5742;SDS011;2896;53.500;10.020;2023-04-24T04:05:59;2.37;;;2.30;;
5742;SDS011;2896;53.500;10.020;2023-04-24T04:08:26;2.50;;;2.40;;
5742;SDS011;2896;53.500;10.020;2023-04-24T04:10:52;9.43;;;2.67;;
5742;SDS011;2896;53.500;10.020;2023-04-24T04:13:19;3.73;;;3.03;;
5742;SDS011;2896;53.500;10.020;2023-04-24T04:15:47;2.90;;;2.70;;
5742;SDS011;2896;53.500;10.020;2023-04-24T04:18:14;2.40;;;2.30;;
5742;SDS011;2896;53.500;10.020;2023-04-24T04:20:41;2.47;;;2.30;;
5742;SDS011;2896;53.500;10.020;2023-04-24T04:23:08;4.20;;;2.50;;
5742;SDS011;2896;53.500;10.020;2023-04-24T04:25:34;2.47;;;2.27;;
5742;SDS011;2896;53.500;10.020;2023-04-24T04:28:01;2.67;;;2.47;;
5742;SDS011;2896;53.500;10.020;2023-04-24T04:30:28;2.67;;;2.57;;
5742;SDS011;2896;53.500;10.020;2023-04-24T04:32:58;2.30;;;2.20;;
5742;SDS011;2896;53.500;10.020;2023-04-24T04:35:25;2.03;;;2.03;;
5742;SDS011;2896;53.500;10.020;2023-04-24T04:37:52;2.60;;;2.40;;
5742;SDS011;2896;53.500;10.020;2023-04-24T04:40:18;1.90;;;1.90;;
5742;SDS011;2896;53.500;10.020;2023-04-24T04:42:45;4.80;;;2.90;;
5742;SDS011;2896;53.500;10.020;2023-04-24T04:45:12;2.53;;;2.40;;
5742;SDS011;2896;53.500;10.020;2023-04-24T04:47:41;8.20;;;2.90;;
5742;SDS011;2896;53.500;10.020;2023-04-24T04:50:10;1.97;;;1.97;;
5742;SDS011;2896;53.500;10.020;2023-04-24T04:52:37;2.40;;;2.00;;
5742;SDS011;2896;53.500;10.020;2023-04-24T04:55:04;2.50;;;2.30;;
5742;SDS011;2896;53.500;10.020;2023-04-24T04:57:31;2.30;;;2.20;;
5742;SDS011;2896;53.500;10.020;2023-04-24T04:59:58;2.17;;;2.10;;
5742;SDS011;2896;53.500;10.020;2023-04-24T05:02:25;2.13;;;1.90;;
5742;SDS011;2896;53.500;10.020;2023-04-24T05:04:51;5.03;;;2.00;;
5742;SDS011;2896;53.500;10.020;2023-04-24T05:07:20;2.07;;;1.97;;
5742;SDS011;2896;53.500;10.020;2023-04-24T05:09:46;1.77;;;1.67;;
5742;SDS011;2896;53.500;10.020;2023-04-24T05:12:13;2.07;;;1.87;;
5742;SDS011;2896;53.500;10.020;2023-04-24T05:14:39;3.50;;;1.50;;
5742;SDS011;2896;53.500;10.020;2023-04-24T05:17:06;1.97;;;1.97;;
5742;SDS011;2896;53.500;10.020;2023-04-24T05:19:33;1.97;;;1.97;;
5742;SDS011;2896;53.500;10.020;2023-04-24T05:22:00;1.50;;;1.50;;
5742;SDS011;2896;53.500;10.020;2023-04-24T05:24:30;1.90;;;1.80;;
5742;SDS011;2896;53.500;10.020;2023-04-24T05:26:57;2.27;;;1.63;;
5742;SDS011;2896;53.500;10.020;2023-04-24T05:29:24;1.60;;;1.50;;
5742;SDS011;2896;53.500;10.020;2023-04-24T05:31:51;1.43;;;1.43;;
5742;SDS011;2896;53.500;10.020;2023-04-24T05:34:18;1.50;;;1.40;;
5742;SDS011;2896;53.500;10.020;2023-04-24T05:36:45;1.30;;;1.30;;
5742;SDS011;2896;53.500;10.020;2023-04-24T05:39:11;2.30;;;1.83;;
5742;SDS011;2896;53.500;10.020;2023-04-24T05:41:39;1.77;;;1.67;;
5742;SDS011;2896;53.500;10.020;2023-04-24T05:44:06;1.73;;;1.63;;
5742;SDS011;2896;53.500;10.020;2023-04-24T05:46:32;1.30;;;1.30;;
5742;SDS011;2896;53.500;10.020;2023-04-24T05:48:59;2.40;;;1.80;;
5742;SDS011;2896;53.500;10.020;2023-04-24T05:51:26;3.60;;;1.47;;
5742;SDS011;2896;53.500;10.020;2023-04-24T05:53:52;1.67;;;1.67;;
5742;SDS011;2896;53.500;10.020;2023-04-24T05:56:19;1.60;;;1.50;;
5742;SDS011;2896;53.500;10.020;2023-04-24T05:58:48;1.60;;;1.50;;
5742;SDS011;2896;53.500;10.020;2023-04-24T06:01:14;1.67;;;1.37;;
5742;SDS011;2896;53.500;10.020;2023-04-24T06:03:41;1.30;;;1.30;;
5742;SDS011;2896;53.500;10.020;2023-04-24T06:06:08;2.00;;;1.90;;
5742;SDS011;2896;53.500;10.020;2023-04-24T06:08:35;4.83;;;1.77;;
5742;SDS011;2896;53.500;10.020;2023-04-24T06:11:01;1.70;;;1.60;;
5742;SDS011;2896;53.500;10.020;2023-04-24T06:13:28;1.90;;;1.80;;
5742;SDS011;2896;53.500;10.020;2023-04-24T06:15:56;1.60;;;1.50;;
5742;SDS011;2896;53.500;10.020;2023-04-24T06:18:23;1.43;;;1.43;;
5742;SDS011;2896;53.500;10.020;2023-04-24T06:20:49;1.60;;;1.50;;
5742;SDS011;2896;53.500;10.020;2023-04-24T06:23:16;1.73;;;1.63;;
5742;SDS011;2896;53.500;10.020;2023-04-24T06:25:43;1.53;;;1.53;;
5742;SDS011;2896;53.500;10.020;2023-04-24T06:28:10;1.90;;;1.80;;
5742;SDS011;2896;53.500;10.020;2023-04-24T06:30:36;1.80;;;1.70;;
5742;SDS011;2896;53.500;10.020;2023-04-24T06:33:04;1.80;;;1.70;;
5742;SDS011;2896;53.500;10.020;2023-04-24T06:35:33;2.00;;;2.00;;
5742;SDS011;2896;53.500;10.020;2023-04-24T06:37:59;1.97;;;1.97;;
5742;SDS011;2896;53.500;10.020;2023-04-24T06:40:26;2.10;;;2.00;;
5742;SDS011;2896;53.500;10.020;2023-04-24T06:42:53;2.27;;;2.17;;
5742;SDS011;2896;53.500;10.020;2023-04-24T06:45:20;3.37;;;1.60;;
5742;SDS011;2896;53.500;10.020;2023-04-24T06:47:47;11.40;;;2.00;;
5742;SDS011;2896;53.500;10.020;2023-04-24T06:50:15;2.40;;;2.30;;
5742;SDS011;2896;53.500;10.020;2023-04-24T06:52:42;2.43;;;2.33;;
5742;SDS011;2896;53.500;10.020;2023-04-24T06:55:09;2.40;;;2.20;;
5742;SDS011;2896;53.500;10.020;2023-04-24T06:57:36;4.60;;;2.60;;
5742;SDS011;2896;53.500;10.020;2023-04-24T07:00:03;2.30;;;2.20;;
5742;SDS011;2896;53.500;10.020;2023-04-24T07:02:31;2.27;;;2.17;;
5742;SDS011;2896;53.500;10.020;2023-04-24T07:04:58;2.93;;;2.37;;
5742;SDS011;2896;53.500;10.020;2023-04-24T07:07:27;3.90;;;2.43;;
5742;SDS011;2896;53.500;10.020;2023-04-24T07:09:54;2.80;;;2.70;;
5742;SDS011;2896;53.500;10.020;2023-04-24T07:12:21;3.90;;;2.50;;
5742;SDS011;2896;53.500;10.020;2023-04-24T07:14:47;2.53;;;2.43;;
5742;SDS011;2896;53.500;10.020;2023-04-24T07:17:14;3.00;;;2.53;;
5742;SDS011;2896;53.500;10.020;2023-04-24T07:19:41;3.30;;;3.00;;
5742;SDS011;2896;53.500;10.020;2023-04-24T07:22:08;3.00;;;2.90;;
5742;SDS011;2896;53.500;10.020;2023-04-24T07:24:37;2.73;;;2.60;;
5742;SDS011;2896;53.500;10.020;2023-04-24T07:27:04;2.63;;;2.53;;
5742;SDS011;2896;53.500;10.020;2023-04-24T07:29:31;3.03;;;2.83;;
5742;SDS011;2896;53.500;10.020;2023-04-24T07:31:57;2.50;;;2.40;;
5742;SDS011;2896;53.500;10.020;2023-04-24T07:34:24;5.73;;;3.07;;
5742;SDS011;2896;53.500;10.020;2023-04-24T07:36:51;3.40;;;3.20;;
5742;SDS011;2896;53.500;10.020;2023-04-24T07:39:18;3.00;;;2.90;;
5742;SDS011;2896;53.500;10.020;2023-04-24T07:41:46;3.17;;;3.07;;
5742;SDS011;2896;53.500;10.020;2023-04-24T07:44:12;4.13;;;2.80;;
5742;SDS011;2896;53.500;10.020;2023-04-24T07:46:39;4.27;;;4.00;;
5742;SDS011;2896;53.500;10.020;2023-04-24T07:49:06;3.97;;;3.53;;
5742;SDS011;2896;53.500;10.020;2023-04-24T07:51:33;4.03;;;3.73;;
5742;SDS011;2896;53.500;10.020;2023-04-24T07:54:03;17.73;;;3.10;;
5742;SDS011;2896;53.500;10.020;2023-04-24T07:56:30;3.70;;;3.50;;
5742;SDS011;2896;53.500;10.020;2023-04-24T07:58:58;4.53;;;4.07;;
5742;SDS011;2896;53.500;10.020;2023-04-24T08:01:26;4.60;;;3.80;;
5742;SDS011;2896;53.500;10.020;2023-04-24T08:03:52;4.43;;;4.23;;
5742;SDS011;2896;53.500;10.020;2023-04-24T08:06:19;4.93;;;4.43;;
5742;SDS011;2896;53.500;10.020;2023-04-24T08:08:46;4.00;;;3.80;;
5742;SDS011;2896;53.500;10.020;2023-04-24T08:11:13;4.47;;;4.17;;
5742;SDS011;2896;53.500;10.020;2023-04-24T08:13:39;4.43;;;4.07;;
5742;SDS011;2896;53.500;10.020;2023-04-24T08:16:07;4.83;;;4.43;;
5742;SDS011;2896;53.500;10.020;2023-04-24T08:18:34;4.50;;;4.20;;
5742;SDS011;2896;53.500;10.020;2023-04-24T08:21:01;5.80;;;4.53;;
5742;SDS011;2896;53.500;10.020;2023-04-24T08:23:27;4.17;;;3.97;;
5742;SDS011;2896;53.500;10.020;2023-04-24T08:25:54;5.30;;;5.00;;
5742;SDS011;2896;53.500;10.020;2023-04-24T08:28:22;4.50;;;4.30;;
5742;SDS011;2896;53.500;10.020;2023-04-24T08:30:49;5.30;;;4.90;;
5742;SDS011;2896;53.500;10.020;2023-04-24T08:33:20;5.13;;;4.83;;
5742;SDS011;2896;53.500;10.020;2023-04-24T08:35:47;5.87;;;5.47;;
5742;SDS011;2896;53.500;10.020;2023-04-24T08:38:14;5.23;;;4.93;;
5742;SDS011;2896;53.500;10.020;2023-04-24T08:40:41;5.93;;;5.53;;
5742;SDS011;2896;53.500;10.020;2023-04-24T08:43:08;5.33;;;5.00;;
5742;SDS011;2896;53.500;10.020;2023-04-24T08:45:35;6.13;;;5.63;;
5742;SDS011;2896;53.500;10.020;2023-04-24T08:48:03;6.07;;;5.57;;
5742;SDS011;2896;53.500;10.020;2023-04-24T08:50:32;6.20;;;5.70;;
5742;SDS011;2896;53.500;10.020;2023-04-24T08:53:00;5.23;;;5.00;;
5742;SDS011;2896;53.500;10.020;2023-04-24T08:55:27;5.37;;;4.97;;
5742;SDS011;2896;53.500;10.020;2023-04-24T08:57:56;5.33;;;5.00;;
5742;SDS011;2896;53.500;10.020;2023-04-24T09:00:24;5.37;;;4.87;;
5742;SDS011;2896;53.500;10.020;2023-04-24T09:02:52;5.93;;;5.00;;
5742;SDS011;2896;53.500;10.020;2023-04-24T09:05:21;5.13;;;4.70;;
5742;SDS011;2896;53.500;10.020;2023-04-24T09:07:52;5.40;;;5.10;;
5742;SDS011;2896;53.500;10.020;2023-04-24T09:10:21;5.67;;;5.27;;
5742;SDS011;2896;53.500;10.020;2023-04-24T09:12:49;5.33;;;5.03;;
5742;SDS011;2896;53.500;10.020;2023-04-24T09:15:16;6.10;;;4.50;;
5742;SDS011;2896;53.500;10.020;2023-04-24T09:17:44;6.30;;;5.80;;
5742;SDS011;2896;53.500;10.020;2023-04-24T09:20:10;6.43;;;5.90;;
5742;SDS011;2896;53.500;10.020;2023-04-24T09:22:37;11.20;;;6.00;;
5742;SDS011;2896;53.500;10.020;2023-04-24T09:25:06;6.00;;;5.50;;
5742;SDS011;2896;53.500;10.020;2023-04-24T09:27:34;6.57;;;6.07;;
5742;SDS011;2896;53.500;10.020;2023-04-24T09:30:01;6.13;;;5.53;;
5742;SDS011;2896;53.500;10.020;2023-04-24T09:32:29;6.50;;;6.10;;
5742;SDS011;2896;53.500;10.020;2023-04-24T09:35:06;5.80;;;4.77;;
5742;SDS011;2896;53.500;10.020;2023-04-24T09:37:35;7.70;;;5.70;;
5742;SDS011;2896;53.500;10.020;2023-04-24T09:40:11;6.47;;;5.83;;
5742;SDS011;2896;53.500;10.020;2023-04-24T09:42:39;5.80;;;5.40;;
5742;SDS011;2896;53.500;10.020;2023-04-24T09:45:08;10.53;;;5.90;;
5742;SDS011;2896;53.500;10.020;2023-04-24T09:47:36;9.20;;;5.90;;
5742;SDS011;2896;53.500;10.020;2023-04-24T09:50:10;6.07;;;5.57;;
5742;SDS011;2896;53.500;10.020;2023-04-24T09:52:41;6.23;;;5.83;;
5742;SDS011;2896;53.500;10.020;2023-04-24T09:55:15;7.17;;;6.40;;
5742;SDS011;2896;53.500;10.020;2023-04-24T09:57:46;7.10;;;5.50;;
5742;SDS011;2896;53.500;10.020;2023-04-24T10:00:17;7.20;;;6.50;;
5742;SDS011;2896;53.500;10.020;2023-04-24T10:02:45;7.10;;;6.50;;
5742;SDS011;2896;53.500;10.020;2023-04-24T10:05:16;6.77;;;6.07;;
5742;SDS011;2896;53.500;10.020;2023-04-24T10:07:43;7.30;;;6.80;;
5742;SDS011;2896;53.500;10.020;2023-04-24T10:10:11;9.70;;;8.03;;
5742;SDS011;2896;53.500;10.020;2023-04-24T10:12:39;7.73;;;7.03;;
5742;SDS011;2896;53.500;10.020;2023-04-24T10:15:06;8.03;;;7.43;;
5742;SDS011;2896;53.500;10.020;2023-04-24T10:17:37;9.10;;;7.83;;
5742;SDS011;2896;53.500;10.020;2023-04-24T10:20:05;10.20;;;7.70;;
5742;SDS011;2896;53.500;10.020;2023-04-24T10:22:33;7.90;;;7.13;;
5742;SDS011;2896;53.500;10.020;2023-04-24T10:25:00;11.47;;;9.63;;
5742;SDS011;2896;53.500;10.020;2023-04-24T10:27:30;12.47;;;9.23;;
5742;SDS011;2896;53.500;10.020;2023-04-24T10:30:00;11.53;;;8.67;;
5742;SDS011;2896;53.500;10.020;2023-04-24T10:32:28;14.37;;;11.20;;
5742;SDS011;2896;53.500;10.020;2023-04-24T10:34:55;12.83;;;9.80;;
5742;SDS011;2896;53.500;10.020;2023-04-24T10:37:21;18.60;;;11.57;;
5742;SDS011;2896;53.500;10.020;2023-04-24T10:39:49;16.10;;;11.20;;
5742;SDS011;2896;53.500;10.020;2023-04-24T10:42:19;17.13;;;11.50;;
5742;SDS011;2896;53.500;10.020;2023-04-24T10:44:47;13.20;;;11.70;;
5742;SDS011;2896;53.500;10.020;2023-04-24T10:47:15;13.27;;;10.67;;
5742;SDS011;2896;53.500;10.020;2023-04-24T10:49:42;13.17;;;11.03;;
5742;SDS011;2896;53.500;10.020;2023-04-24T10:52:08;12.97;;;10.97;;
5742;SDS011;2896;53.500;10.020;2023-04-24T10:54:40;10.40;;;9.20;;
5742;SDS011;2896;53.500;10.020;2023-04-24T10:57:25;12.03;;;10.73;;
5742;SDS011;2896;53.500;10.020;2023-04-24T11:00:09;17.13;;;10.57;;
5742;SDS011;2896;53.500;10.020;2023-04-24T11:02:40;14.03;;;10.77;;
5742;SDS011;2896;53.500;10.020;2023-04-24T11:05:13;11.17;;;10.10;;
5742;SDS011;2896;53.500;10.020;2023-04-24T11:10:37;11.37;;;9.77;;
5742;SDS011;2896;53.500;10.020;2023-04-24T11:13:05;14.50;;;9.57;;
5742;SDS011;2896;53.500;10.020;2023-04-24T11:15:32;13.07;;;9.73;;
5742;SDS011;2896;53.500;10.020;2023-04-24T11:18:00;11.03;;;9.80;;
5742;SDS011;2896;53.500;10.020;2023-04-24T11:20:27;12.43;;;9.67;;
5742;SDS011;2896;53.500;10.020;2023-04-24T11:22:54;14.03;;;9.17;;
5742;SDS011;2896;53.500;10.020;2023-04-24T11:25:22;11.93;;;9.40;;
5742;SDS011;2896;53.500;10.020;2023-04-24T11:27:50;11.23;;;9.97;;
5742;SDS011;2896;53.500;10.020;2023-04-24T11:30:29;10.80;;;9.70;;
5742;SDS011;2896;53.500;10.020;2023-04-24T11:32:57;9.63;;;8.57;;
5742;SDS011;2896;53.500;10.020;2023-04-24T11:35:29;11.57;;;9.00;;
5742;SDS011;2896;53.500;10.020;2023-04-24T11:38:02;8.73;;;8.03;;
5742;SDS011;2896;53.500;10.020;2023-04-24T11:40:30;10.03;;;8.23;;
5742;SDS011;2896;53.500;10.020;2023-04-24T11:42:59;8.20;;;7.50;;
5742;SDS011;2896;53.500;10.020;2023-04-24T11:45:27;10.83;;;7.20;;
5742;SDS011;2896;53.500;10.020;2023-04-24T11:47:54;7.27;;;6.57;;
5742;SDS011;2896;53.500;10.020;2023-04-24T11:50:22;12.03;;;7.47;;
5742;SDS011;2896;53.500;10.020;2023-04-24T11:52:52;8.00;;;7.20;;
5742;SDS011;2896;53.500;10.020;2023-04-24T11:55:24;6.63;;;6.03;;
5742;SDS011;2896;53.500;10.020;2023-04-24T11:57:52;10.50;;;7.40;;
5742;SDS011;2896;53.500;10.020;2023-04-24T12:00:21;9.47;;;7.83;;
5742;SDS011;2896;53.500;10.020;2023-04-24T12:02:49;9.73;;;6.30;;
5742;SDS011;2896;53.500;10.020;2023-04-24T12:05:19;7.80;;;7.03;;
5742;SDS011;2896;53.500;10.020;2023-04-24T12:07:47;6.70;;;6.20;;
5742;SDS011;2896;53.500;10.020;2023-04-24T12:10:14;5.67;;;5.23;;
5742;SDS011;2896;53.500;10.020;2023-04-24T12:12:40;6.70;;;6.10;;
5742;SDS011;2896;53.500;10.020;2023-04-24T12:15:07;6.80;;;6.10;;
5742;SDS011;2896;53.500;10.020;2023-04-24T12:17:35;7.27;;;6.57;;
5742;SDS011;2896;53.500;10.020;2023-04-24T12:20:03;6.40;;;5.90;;
5742;SDS011;2896;53.500;10.020;2023-04-24T12:22:42;6.90;;;6.33;;
5742;SDS011;2896;53.500;10.020;2023-04-24T12:25:12;9.50;;;6.50;;
5742;SDS011;2896;53.500;10.020;2023-04-24T12:27:39;6.50;;;6.00;;
5742;SDS011;2896;53.500;10.020;2023-04-24T12:30:09;7.03;;;6.53;;
5742;SDS011;2896;53.500;10.020;2023-04-24T12:32:40;7.40;;;6.80;;
5742;SDS011;2896;53.500;10.020;2023-04-24T12:35:08;7.43;;;6.80;;
5742;SDS011;2896;53.500;10.020;2023-04-24T12:37:35;10.77;;;7.13;;
5742;SDS011;2896;53.500;10.020;2023-04-24T12:40:02;7.10;;;6.60;;
5742;SDS011;2896;53.500;10.020;2023-04-24T12:42:33;8.20;;;7.40;;
5742;SDS011;2896;53.500;10.020;2023-04-24T12:45:01;7.70;;;6.90;;
5742;SDS011;2896;53.500;10.020;2023-04-24T12:47:29;10.63;;;5.70;;
5742;SDS011;2896;53.500;10.020;2023-04-24T12:49:57;6.87;;;5.17;;
5742;SDS011;2896;53.500;10.020;2023-04-24T12:52:24;4.53;;;4.23;;
5742;SDS011;2896;53.500;10.020;2023-04-24T12:54:52;6.00;;;5.40;;
5742;SDS011;2896;53.500;10.020;2023-04-24T12:57:20;5.83;;;5.23;;
5742;SDS011;2896;53.500;10.020;2023-04-24T12:59:48;5.77;;;5.20;;
5742;SDS011;2896;53.500;10.020;2023-04-24T13:02:15;5.50;;;5.10;;
5742;SDS011;2896;53.500;10.020;2023-04-24T13:04:43;5.40;;;5.00;;
5742;SDS011;2896;53.500;10.020;2023-04-24T13:07:11;6.30;;;4.93;;
5742;SDS011;2896;53.500;10.020;2023-04-24T13:09:37;5.70;;;5.30;;
5742;SDS011;2896;53.500;10.020;2023-04-24T13:12:04;5.70;;;5.30;;
5742;SDS011;2896;53.500;10.020;2023-04-24T13:14:31;5.77;;;5.40;;
5742;SDS011;2896;53.500;10.020;2023-04-24T13:16:59;5.83;;;5.47;;
5742;SDS011;2896;53.500;10.020;2023-04-24T13:19:26;5.97;;;5.57;;
5742;SDS011;2896;53.500;10.020;2023-04-24T13:21:54;5.40;;;5.03;;
5742;SDS011;2896;53.500;10.020;2023-04-24T13:24:21;9.03;;;5.43;;
5742;SDS011;2896;53.500;10.020;2023-04-24T13:26:49;5.17;;;4.77;;
5742;SDS011;2896;53.500;10.020;2023-04-24T13:29:16;5.43;;;5.13;;
5742;SDS011;2896;53.500;10.020;2023-04-24T13:31:43;4.80;;;4.37;;
5742;SDS011;2896;53.500;10.020;2023-04-24T13:34:11;5.10;;;4.80;;
5742;SDS011;2896;53.500;10.020;2023-04-24T13:36:38;5.63;;;5.23;;
5742;SDS011;2896;53.500;10.020;2023-04-24T13:39:05;5.70;;;5.30;;
5742;SDS011;2896;53.500;10.020;2023-04-24T13:41:32;4.57;;;4.37;;
5742;SDS011;2896;53.500;10.020;2023-04-24T13:44:00;5.03;;;4.57;;
5742;SDS011;2896;53.500;10.020;2023-04-24T13:46:27;5.17;;;4.77;;
5742;SDS011;2896;53.500;10.020;2023-04-24T13:48:53;5.20;;;4.90;;
5742;SDS011;2896;53.500;10.020;2023-04-24T13:51:21;5.30;;;4.90;;
5742;SDS011;2896;53.500;10.020;2023-04-24T13:53:51;6.30;;;5.77;;
5742;SDS011;2896;53.500;10.020;2023-04-24T13:56:18;6.23;;;5.63;;
5742;SDS011;2896;53.500;10.020;2023-04-24T13:58:45;5.63;;;5.17;;
5742;SDS011;2896;53.500;10.020;2023-04-24T14:01:12;5.83;;;5.43;;
5742;SDS011;2896;53.500;10.020;2023-04-24T14:03:39;5.20;;;4.90;;
5742;SDS011;2896;53.500;10.020;2023-04-24T14:06:08;6.13;;;5.03;;
5742;SDS011;2896;53.500;10.020;2023-04-24T14:08:36;5.13;;;4.87;;
5742;SDS011;2896;53.500;10.020;2023-04-24T14:11:02;6.93;;;6.23;;
5742;SDS011;2896;53.500;10.020;2023-04-24T14:13:30;7.90;;;6.73;;
5742;SDS011;2896;53.500;10.020;2023-04-24T14:15:57;6.90;;;6.33;;
5742;SDS011;2896;53.500;10.020;2023-04-24T14:18:24;6.03;;;5.53;;
5742;SDS011;2896;53.500;10.020;2023-04-24T14:20:51;6.87;;;6.37;;
5742;SDS011;2896;53.500;10.020;2023-04-24T14:23:21;5.00;;;4.80;;
5742;SDS011;2896;53.500;10.020;2023-04-24T14:25:49;5.43;;;5.13;;
5742;SDS011;2896;53.500;10.020;2023-04-24T14:28:17;4.53;;;4.30;;
5742;SDS011;2896;53.500;10.020;2023-04-24T14:30:44;4.53;;;4.33;;
5742;SDS011;2896;53.500;10.020;2023-04-24T14:33:10;3.87;;;3.70;;
5742;SDS011;2896;53.500;10.020;2023-04-24T14:35:38;3.93;;;3.80;;
5742;SDS011;2896;53.500;10.020;2023-04-24T14:38:05;4.13;;;3.90;;
5742;SDS011;2896;53.500;10.020;2023-04-24T14:40:31;3.67;;;3.57;;
5742;SDS011;2896;53.500;10.020;2023-04-24T14:42:59;4.97;;;4.10;;
5742;SDS011;2896;53.500;10.020;2023-04-24T14:45:26;7.27;;;4.80;;
5742;SDS011;2896;53.500;10.020;2023-04-24T14:47:53;7.50;;;4.90;;
5742;SDS011;2896;53.500;10.020;2023-04-24T14:50:20;6.00;;;5.50;;
5742;SDS011;2896;53.500;10.020;2023-04-24T14:52:47;5.43;;;5.10;;
5742;SDS011;2896;53.500;10.020;2023-04-24T14:55:13;6.13;;;5.63;;
5742;SDS011;2896;53.500;10.020;2023-04-24T14:57:41;7.60;;;6.60;;
5742;SDS011;2896;53.500;10.020;2023-04-24T15:00:10;6.60;;;6.03;;
5742;SDS011;2896;53.500;10.020;2023-04-24T15:02:37;7.07;;;6.43;;
5742;SDS011;2896;53.500;10.020;2023-04-24T15:05:07;6.70;;;6.30;;